Warning: Javascript must be enabled to use all the features on this page!


Page Loading - Please Wait...

Click to hideNews Bulletins

USGS 04189260 Blanchard River at Ottawa OH

PROVISIONAL DATA SUBJECT TO REVISION

Click to hidestation-specific text
Station operated in cooperation with the Village of Ottawa and the National Streamflow Information Program.
 04189260 Blanchard River at Ottawa, OH
 LOCATION.--Lat 41°01'01", long 84°02'49", Putnam County, OH, Hydrologic 
     Unit 04100008, on right bank at downstream side of Oak Street, 200 ft. upstream 
     of B&O railroad bridge, 800 ft. upstream of SR65 bridge, 1,200 ft. southeast of 
     intersection of SR65 and US RT224 in the village of Ottawa, OH.
 DRAINAGE AREA.--628 mi2.
 PERIOD OF RECORD.--October 2009 to current water year.

Boating safety tips
Available Parameters Available Period
All 2 Available Parameters for this site
  
00065 Gage height 2014-12-02  2015-04-01
00060 Discharge 2009-10-01  2015-04-01

Graph
Graph w/ stats
Graph w/o stats
Graph w/ (up to 3) parms
Table
Tab-separated
Days  (7)
 

  -- or --
Begin date
 

End date
 

Summary of all available data for this site
Instantaneous-data availability statement
Gage height, feet
TIMEMar 25Mar 26Mar 27Mar 28Mar 29Mar 30Mar 31Apr 1
00:00 EDT7.04P  7.47P  13.21P  16.05P  13.28P  9.88P  8.84P  7.92P  
00:30 EDT7.03P  7.50P  13.40P  16.03P  13.18P  9.85P  8.82P  7.91P  
01:00 EDT7.03P  7.54P  13.58P  16.01P  13.08P  9.81P  8.80P  7.90P  
01:30 EDT7.02P  7.57P  13.75P  15.99P  12.98P  9.79P  8.79P  7.88P  
02:00 EDT7.01P  7.61P  13.91P  15.98P  12.88P  9.75P  8.77P  7.87P  
02:30 EDT7.00P  7.65P  14.06P  15.95P  12.78P  9.72P  8.75P  7.86P  
03:00 EDT6.99P  7.69P  14.19P  15.93P  12.68P  9.69P  8.74P  7.84P  
03:30 EDT6.99P  7.73P  14.33P  15.90P  12.58P  9.66P  8.72P  7.83P  
04:00 EDT6.98P  7.78P  14.45P  15.88P  12.48P  9.64P  8.70P  7.82P  
04:30 EDT6.98P  7.83P  14.57P  15.86P  12.39P  9.61P  8.68P  7.81P  
05:00 EDT6.97P  7.88P  14.68P  15.82P  12.29P  9.58P  8.66P  7.79P  
05:30 EDT6.97P  7.95P  14.79P  15.80P  12.20P  9.56P  8.64P  7.78P  
06:00 EDT6.98P  8.02P  14.88P  15.77P  12.11P  9.53P  8.62P  7.77P  
06:30 EDT6.98P  8.12P  15.00P  15.74P  12.02P  9.51P  8.60P  7.76P  
07:00 EDT6.98P  8.22P  15.09P  15.71P  11.93P  9.48P  8.58P  7.75P  
07:30 EDT7.00P  8.32P  15.17P  15.67P  11.84P  9.46P  8.56P  7.74P  
08:00 EDT7.01P  8.43P  15.26P  15.63P  11.76P  9.44P  8.53P  7.73P  
08:30 EDT7.02P  8.53P  15.33P  15.60P  11.68P  9.42P  8.51P  7.73P  
09:00 EDT7.03P  8.63P  15.40P  15.56P  11.60P  9.39P  8.49P  7.71P  
09:30 EDT7.05P  8.72P  15.47P  15.52P  11.51P  9.37P  8.46P  7.71P  
10:00 EDT7.05P  8.81P  15.54P  15.47P  11.44P  9.35P  8.44P  7.70P  
10:30 EDT7.07P  8.89P  15.60P  15.43P  11.37P  9.33P  8.42P  7.69P  
11:00 EDT7.07P  8.98P  15.66P  15.38P  11.29P  9.31P  8.40P  7.68P  
11:30 EDT7.09P  9.06P  15.71P  15.33P  11.21P  9.29P  8.37P  7.68P  
12:00 EDT7.10P  9.14P  15.77P  15.28P  11.14P  9.26P  8.36P  7.67P  
12:30 EDT7.11P  9.23P  15.81P  15.23P  11.07P  9.25P  8.32P  7.67P  
13:00 EDT7.12P  9.31P  15.85P  15.17P  11.00P  9.23P  8.30P  7.66P  
13:30 EDT7.13P  9.41P  15.89P  15.11P  10.93P  9.20P  8.28P  7.66P  
14:00 EDT7.15P  9.50P  15.92P  15.04P  10.87P  9.18P  8.26P  7.65P  
14:30 EDT7.14P  9.61P  15.96P  14.98P  10.81P  9.16P  8.25P  7.65P  
15:00 EDT7.16P  9.73P  15.98P  14.91P  10.74P  9.14P  8.23P  7.65P  
15:30 EDT7.17P  9.85P  16.01P  14.84P  10.69P  9.12P  8.21P  7.65P  
16:00 EDT7.18P  9.99P  16.04P  14.76P  10.62P  9.11P  8.18P  7.64P  
16:30 EDT7.20P  10.14P  16.05P  14.69P  10.56P  9.09P  8.17P  7.64P  
17:00 EDT7.20P  10.32P  16.07P  14.60P  10.51P  9.07P  8.15P  7.64P  
17:30 EDT7.21P  10.49P  16.09P  14.52P  10.45P  9.05P  8.13P  7.64P  
18:00 EDT7.23P  10.68P  16.08P  14.43P  10.40P  9.03P  8.11P   
18:30 EDT7.24P  10.88P  16.10P  14.34P  10.36P  9.02P  8.10P   
19:00 EDT7.25P  11.09P  16.11P  14.26P  10.31P  9.00P  8.09P   
19:30 EDT7.27P  11.29P  16.11P  14.16P  10.26P  8.98P  8.06P   
20:00 EDT7.28P  11.48P  16.11P  14.07P  10.21P  8.96P  8.05P   
20:30 EDT7.30P  11.68P  16.10P  13.97P  10.17P  8.94P  8.03P   
21:00 EDT7.32P  11.89P  16.10P  13.88P  10.12P  8.93P  8.02P   
21:30 EDT7.34P  12.12P  16.09P  13.78P  10.08P  8.91P  8.00P   
22:00 EDT7.36P  12.34P  16.09P  13.68P  10.03P  8.90P  7.99P   
22:30 EDT7.39P  12.57P  16.08P  13.59P  10.00P  8.88P  7.97P   
23:00 EDT7.41P  12.79P  16.07P  13.48P  9.95P  8.87P  7.96P   
23:30 EDT7.44P  13.01P  16.06P  13.39P  9.92P  8.85P  7.94P   
COUNT4848484848484836
MAX7.4413.0116.1116.0513.289.888.847.92
MIN6.977.4713.2113.399.928.857.947.64

Explanation
  P  Provisional data subject to revision.